Time,TemperatureF,DewpointF,PressureIn,WindDirection,WindDirectionDegrees,WindSpeedMPH,WindSpeedGustMPH,Humidity,HourlyPrecipIn,Conditions,Clouds,dailyrainin,SolarRadiationWatts/m^2,SoftwareType,DateUTC
2013-07-07 00:01:00,68.0,52.0,-100.00,NNW,346,0.0,0.0,56,0.00,,,0.00,0.000000,,2013-07-07 07:01:00,
2013-07-07 00:22:00,67.0,51.0,-100.00,NNW,344,0.0,0.0,57,0.00,,,0.00,0.000000,,2013-07-07 07:22:00,
2013-07-07 00:33:00,67.0,51.0,-100.00,NNW,344,0.0,0.0,57,0.00,,,0.00,0.000000,,2013-07-07 07:33:00,
2013-07-07 00:44:00,67.0,51.0,-100.00,NNW,344,0.0,0.0,57,0.00,,,0.00,0.000000,,2013-07-07 07:44:00,
2013-07-07 00:53:00,67.0,51.0,-100.00,NNW,344,0.0,0.0,57,0.00,,,0.00,0.000000,,2013-07-07 07:53:00,
2013-07-07 01:02:00,67.0,51.0,-100.00,NNW,344,0.0,0.0,57,0.00,,,0.00,0.000000,,2013-07-07 08:02:00,
2013-07-07 01:22:00,66.0,50.0,-100.00,NW,326,0.0,0.0,56,0.00,,,0.00,0.000000,,2013-07-07 08:22:00,
2013-07-07 01:34:00,66.0,50.0,-100.00,NW,326,0.0,0.0,56,0.00,,,0.00,0.000000,,2013-07-07 08:34:00,
2013-07-07 01:44:00,66.0,50.0,-100.00,NW,326,0.0,0.0,56,0.00,,,0.00,0.000000,,2013-07-07 08:44:00,
2013-07-07 01:53:00,66.0,50.0,-100.00,NW,326,0.0,0.0,56,0.00,,,0.00,0.000000,,2013-07-07 08:53:00,
2013-07-07 02:02:00,66.0,50.0,-100.00,NW,326,0.0,0.0,56,0.00,,,0.00,0.000000,,2013-07-07 09:02:00,
2013-07-07 02:03:00,67.0,51.0,-100.00,North,352,0.0,0.0,57,0.00,,,0.00,0.000000,,2013-07-07 09:03:00,
2013-07-07 02:22:00,67.0,51.0,-100.00,North,352,0.0,0.0,57,0.00,,,0.00,0.000000,,2013-07-07 09:22:00,
2013-07-07 02:34:00,67.0,51.0,-100.00,North,352,0.0,0.0,57,0.00,,,0.00,0.000000,,2013-07-07 09:34:00,
2013-07-07 02:43:00,67.0,51.0,-100.00,North,352,0.0,0.0,57,0.00,,,0.00,0.000000,,2013-07-07 09:43:00,
2013-07-07 02:53:00,67.0,51.0,-100.00,North,352,0.0,0.0,57,0.00,,,0.00,0.000000,,2013-07-07 09:53:00,
2013-07-07 03:23:00,65.0,49.0,-100.00,NNW,339,0.0,0.0,56,0.00,,,0.00,0.000000,,2013-07-07 10:23:00,
2013-07-07 03:32:00,65.0,49.0,-100.00,NNW,339,0.0,0.0,56,0.00,,,0.00,0.000000,,2013-07-07 10:32:00,
2013-07-07 03:43:00,65.0,49.0,-100.00,NNW,339,0.0,0.0,56,0.00,,,0.00,0.000000,,2013-07-07 10:43:00,
2013-07-07 03:52:00,65.0,49.0,-100.00,NNW,339,0.0,0.0,56,0.00,,,0.00,0.000000,,2013-07-07 10:52:00,
2013-07-07 04:02:00,65.0,49.0,-100.00,NNW,339,0.0,0.0,56,0.00,,,0.00,0.000000,,2013-07-07 11:02:00,
2013-07-07 04:23:00,64.0,48.0,-100.00,SSW,206,0.0,0.0,56,0.00,,,0.00,0.000000,,2013-07-07 11:23:00,
2013-07-07 04:34:00,64.0,48.0,-100.00,SSW,206,0.0,0.0,56,0.00,,,0.00,0.000000,,2013-07-07 11:34:00,
2013-07-07 04:43:00,64.0,48.0,-100.00,SSW,206,0.0,0.0,56,0.00,,,0.00,0.000000,,2013-07-07 11:43:00,
2013-07-07 04:53:00,64.0,48.0,-100.00,SSW,206,0.0,0.0,56,0.00,,,0.00,0.000000,,2013-07-07 11:53:00,
2013-07-07 05:02:00,64.0,48.0,-100.00,SSW,206,0.0,0.0,56,0.00,,,0.00,0.000000,,2013-07-07 12:02:00,
2013-07-07 05:22:00,64.0,48.0,-100.00,NNW,347,0.0,0.0,56,0.00,,,0.00,0.000000,,2013-07-07 12:22:00,
2013-07-07 05:34:00,64.0,48.0,-100.00,NNW,347,0.0,0.0,56,0.00,,,0.00,0.000000,,2013-07-07 12:34:00,
2013-07-07 05:43:00,64.0,48.0,-100.00,NNW,347,0.0,0.0,56,0.00,,,0.00,0.000000,,2013-07-07 12:43:00,
2013-07-07 05:52:00,64.0,48.0,-100.00,NNW,347,0.0,0.0,56,0.00,,,0.00,0.000000,,2013-07-07 12:52:00,
2013-07-07 06:02:00,64.0,48.0,-100.00,NNW,347,0.0,0.0,56,0.00,,,0.00,0.000000,,2013-07-07 13:02:00,
2013-07-07 06:34:00,65.0,49.0,-100.00,NNW,345,0.0,0.0,57,0.00,,,-99.99,6.000000,,2013-07-07 13:34:00,
2013-07-07 06:43:00,65.0,49.0,-100.00,NNW,345,0.0,0.0,57,0.00,,,-99.99,6.000000,,2013-07-07 13:43:00,
2013-07-07 06:52:00,65.0,49.0,-100.00,NNW,345,0.0,0.0,57,0.00,,,-99.99,6.000000,,2013-07-07 13:52:00,
2013-07-07 07:02:00,65.0,49.0,-100.00,NNW,345,0.0,0.0,57,0.00,,,-99.99,6.000000,,2013-07-07 14:02:00,
2013-07-07 07:22:00,67.0,50.0,-100.00,NNW,348,0.0,0.0,54,0.00,,,0.00,25.000000,,2013-07-07 14:22:00,
2013-07-07 07:34:00,67.0,50.0,-100.00,NNW,348,0.0,0.0,54,0.00,,,0.00,25.000000,,2013-07-07 14:34:00,
2013-07-07 07:43:00,67.0,50.0,-100.00,NNW,348,0.0,0.0,54,0.00,,,0.00,25.000000,,2013-07-07 14:43:00,
2013-07-07 07:53:00,67.0,50.0,-100.00,NNW,348,0.0,0.0,54,0.00,,,0.00,25.000000,,2013-07-07 14:53:00,
2013-07-07 08:02:00,67.0,50.0,-100.00,NNW,348,0.0,0.0,54,0.00,,,0.00,25.000000,,2013-07-07 15:02:00,
2013-07-07 08:22:00,74.0,52.0,-100.00,NNE,15,0.0,0.0,47,0.00,,,0.00,118.000000,,2013-07-07 15:22:00,
2013-07-07 08:34:00,74.0,52.0,-100.00,NNE,15,0.0,0.0,47,0.00,,,0.00,118.000000,,2013-07-07 15:34:00,
2013-07-07 08:43:00,74.0,52.0,-100.00,NNE,15,0.0,0.0,47,0.00,,,0.00,118.000000,,2013-07-07 15:43:00,
2013-07-07 08:52:00,74.0,52.0,-100.00,NNE,15,0.0,0.0,47,0.00,,,0.00,118.000000,,2013-07-07 15:52:00,
2013-07-07 09:01:00,74.0,52.0,-100.00,NNE,15,0.0,0.0,47,0.00,,,0.00,118.000000,,2013-07-07 16:01:00,
2013-07-07 09:34:00,88.0,54.0,-100.00,North,2,0.0,0.0,32,0.00,,,0.00,510.000000,,2013-07-07 16:34:00,
2013-07-07 09:43:00,88.0,54.0,-100.00,North,2,0.0,0.0,32,0.00,,,0.00,510.000000,,2013-07-07 16:43:00,
2013-07-07 09:53:00,88.0,54.0,-100.00,North,2,0.0,0.0,32,0.00,,,0.00,510.000000,,2013-07-07 16:53:00,
2013-07-07 10:02:00,88.0,54.0,-100.00,North,2,0.0,0.0,32,0.00,,,0.00,510.000000,,2013-07-07 17:02:00,
2013-07-07 10:22:00,92.0,52.0,-100.00,East,80,0.0,0.0,26,0.00,,,0.00,722.000000,,2013-07-07 17:22:00,
2013-07-07 10:34:00,92.0,52.0,-100.00,East,80,0.0,0.0,26,0.00,,,0.00,722.000000,,2013-07-07 17:34:00,
2013-07-07 10:43:00,92.0,52.0,-100.00,East,80,0.0,0.0,26,0.00,,,0.00,722.000000,,2013-07-07 17:43:00,
2013-07-07 10:53:00,92.0,52.0,-100.00,East,80,0.0,0.0,26,0.00,,,0.00,722.000000,,2013-07-07 17:53:00,
2013-07-07 11:01:00,92.0,52.0,-100.00,East,80,0.0,0.0,26,0.00,,,0.00,722.000000,,2013-07-07 18:01:00,
2013-07-07 11:33:00,93.0,52.0,-100.00,SSE,160,0.0,0.0,25,0.00,,,0.00,856.000000,,2013-07-07 18:33:00,
2013-07-07 11:43:00,93.0,52.0,-100.00,SSE,160,0.0,0.0,25,0.00,,,0.00,856.000000,,2013-07-07 18:43:00,
2013-07-07 11:53:00,93.0,52.0,-100.00,SSE,160,0.0,0.0,25,0.00,,,0.00,856.000000,,2013-07-07 18:53:00,
2013-07-07 12:01:00,93.0,52.0,-100.00,SSE,160,0.0,0.0,25,0.00,,,0.00,856.000000,,2013-07-07 19:01:00,
2013-07-07 12:22:00,96.0,52.0,-100.00,SSE,160,0.0,0.0,23,0.00,,,-99.99,941.000000,,2013-07-07 19:22:00,
2013-07-07 12:34:00,96.0,52.0,-100.00,SSE,160,0.0,0.0,23,0.00,,,-99.99,941.000000,,2013-07-07 19:34:00,
2013-07-07 12:43:00,96.0,52.0,-100.00,SSE,160,0.0,0.0,23,0.00,,,-99.99,941.000000,,2013-07-07 19:43:00,
2013-07-07 12:54:00,96.0,52.0,-100.00,SSE,160,0.0,0.0,23,0.00,,,-99.99,941.000000,,2013-07-07 19:54:00,
2013-07-07 13:02:00,96.0,52.0,-100.00,SSE,160,0.0,0.0,23,0.00,,,-99.99,941.000000,,2013-07-07 20:02:00,
2013-07-07 13:22:00,97.0,52.0,-100.00,SSE,168,0.0,0.0,22,0.00,,,0.00,968.000000,,2013-07-07 20:22:00,
2013-07-07 13:34:00,97.0,52.0,-100.00,SSE,168,0.0,0.0,22,0.00,,,0.00,968.000000,,2013-07-07 20:34:00,
2013-07-07 13:42:00,97.0,52.0,-100.00,SSE,168,0.0,0.0,22,0.00,,,0.00,968.000000,,2013-07-07 20:42:00,
2013-07-07 13:53:00,97.0,52.0,-100.00,SSE,168,0.0,0.0,22,0.00,,,0.00,968.000000,,2013-07-07 20:53:00,
2013-07-07 14:02:00,97.0,52.0,-100.00,SSE,168,0.0,0.0,22,0.00,,,0.00,968.000000,,2013-07-07 21:02:00,
2013-07-07 14:34:00,97.0,51.0,-100.00,SW,216,0.0,0.0,21,0.00,,,0.00,720.000000,,2013-07-07 21:34:00,
2013-07-07 14:44:00,97.0,51.0,-100.00,SW,216,0.0,0.0,21,0.00,,,0.00,720.000000,,2013-07-07 21:44:00,
2013-07-07 14:53:00,97.0,51.0,-100.00,SW,216,0.0,0.0,21,0.00,,,0.00,720.000000,,2013-07-07 21:53:00,
2013-07-07 15:01:00,97.0,51.0,-100.00,SW,216,0.0,0.0,21,0.00,,,0.00,720.000000,,2013-07-07 22:01:00,
2013-07-07 15:34:00,90.0,46.0,-100.00,NE,47,0.0,0.0,22,0.00,,,0.00,223.000000,,2013-07-07 22:34:00,
2013-07-07 15:44:00,90.0,46.0,-100.00,NE,47,0.0,0.0,22,0.00,,,0.00,223.000000,,2013-07-07 22:44:00,
2013-07-07 15:53:00,90.0,46.0,-100.00,NE,47,0.0,0.0,22,0.00,,,0.00,223.000000,,2013-07-07 22:53:00,
2013-07-07 16:01:00,90.0,46.0,-100.00,NE,47,0.0,0.0,22,0.00,,,0.00,223.000000,,2013-07-07 23:01:00,
2013-07-07 16:22:00,94.0,45.0,-100.00,ENE,57,0.0,0.0,19,0.00,,,0.00,284.000000,,2013-07-07 23:22:00,
2013-07-07 16:33:00,94.0,45.0,-100.00,ENE,57,0.0,0.0,19,0.00,,,0.00,284.000000,,2013-07-07 23:33:00,
2013-07-07 16:43:00,94.0,45.0,-100.00,ENE,57,0.0,0.0,19,0.00,,,0.00,284.000000,,2013-07-07 23:43:00,
2013-07-07 16:53:00,94.0,45.0,-100.00,ENE,57,0.0,0.0,19,0.00,,,0.00,284.000000,,2013-07-07 23:53:00,
2013-07-07 17:01:00,94.0,45.0,-100.00,ENE,57,0.0,0.0,19,0.00,,,0.00,284.000000,,2013-07-08 00:01:00,
2013-07-07 17:22:00,90.0,48.0,-100.00,SSE,155,0.0,0.0,24,0.00,,,0.00,190.000000,,2013-07-08 00:22:00,
2013-07-07 17:33:00,90.0,48.0,-100.00,SSE,155,0.0,0.0,24,0.00,,,0.00,190.000000,,2013-07-08 00:33:00,
2013-07-07 17:43:00,90.0,48.0,-100.00,SSE,155,0.0,0.0,24,0.00,,,0.00,190.000000,,2013-07-08 00:43:00,
2013-07-07 17:53:00,90.0,48.0,-100.00,SSE,155,0.0,0.0,24,0.00,,,0.00,190.000000,,2013-07-08 00:53:00,
2013-07-07 18:01:00,90.0,48.0,-100.00,SSE,155,0.0,0.0,24,0.00,,,0.00,190.000000,,2013-07-08 01:01:00,
2013-07-07 18:22:00,90.0,51.0,-100.00,SSE,164,0.0,0.0,27,0.00,,,0.00,157.000000,,2013-07-08 01:22:00,
2013-07-07 18:32:00,90.0,51.0,-100.00,SSE,164,0.0,0.0,27,0.00,,,0.00,157.000000,,2013-07-08 01:32:00,
2013-07-07 18:43:00,90.0,51.0,-100.00,SSE,164,0.0,0.0,27,0.00,,,0.00,157.000000,,2013-07-08 01:43:00,
2013-07-07 18:53:00,90.0,51.0,-100.00,SSE,164,0.0,0.0,27,0.00,,,0.00,157.000000,,2013-07-08 01:53:00,
2013-07-07 19:02:00,90.0,51.0,-100.00,SSE,164,0.0,0.0,27,0.00,,,0.00,157.000000,,2013-07-08 02:02:00,
2013-07-07 19:52:00,83.0,50.0,-100.00,NW,320,0.0,0.0,32,0.00,,,0.00,68.000000,,2013-07-08 02:52:00,
2013-07-07 20:01:00,83.0,50.0,-100.00,NW,320,0.0,0.0,32,0.00,,,0.00,68.000000,,2013-07-08 03:01:00,
2013-07-07 20:52:00,78.0,51.0,-100.00,NNW,328,0.0,0.0,39,0.00,,,0.00,13.000000,,2013-07-08 03:52:00,
2013-07-07 21:01:00,78.0,51.0,-100.00,NNW,328,0.0,0.0,39,0.00,,,0.00,13.000000,,2013-07-08 04:01:00,
2013-07-07 21:42:00,73.0,47.0,-100.00,NNW,339,0.0,0.0,40,0.00,,,0.00,0.000000,,2013-07-08 04:42:00,
2013-07-07 21:53:00,73.0,47.0,-100.00,NNW,339,0.0,0.0,40,0.00,,,0.00,0.000000,,2013-07-08 04:53:00,
2013-07-07 22:01:00,73.0,47.0,-100.00,NNW,339,0.0,0.0,40,0.00,,,0.00,0.000000,,2013-07-08 05:01:00,
2013-07-07 22:22:00,76.0,47.0,-100.00,North,2,0.0,0.0,36,0.00,,,0.00,0.000000,,2013-07-08 05:22:00,
2013-07-07 22:34:00,76.0,47.0,-100.00,North,2,0.0,0.0,36,0.00,,,0.00,0.000000,,2013-07-08 05:34:00,
2013-07-07 22:43:00,76.0,47.0,-100.00,North,2,0.0,0.0,36,0.00,,,0.00,0.000000,,2013-07-08 05:43:00,
2013-07-07 22:53:00,76.0,47.0,-100.00,North,2,0.0,0.0,36,0.00,,,0.00,0.000000,,2013-07-08 05:53:00,
2013-07-07 23:01:00,76.0,47.0,-100.00,North,2,0.0,0.0,36,0.00,,,0.00,0.000000,,2013-07-08 06:01:00,
2013-07-07 23:22:00,75.0,45.0,-100.00,NNW,346,0.0,0.0,35,0.00,,,0.00,0.000000,,2013-07-08 06:22:00,
2013-07-07 23:34:00,75.0,45.0,-100.00,NNW,346,0.0,0.0,35,0.00,,,0.00,0.000000,,2013-07-08 06:34:00,
2013-07-07 23:43:00,75.0,45.0,-100.00,NNW,346,0.0,0.0,35,0.00,,,0.00,0.000000,,2013-07-08 06:43:00,
2013-07-07 23:53:00,75.0,45.0,-100.00,NNW,346,0.0,0.0,35,0.00,,,0.00,0.000000,,2013-07-08 06:53:00,